Time;durP1;ratioP1;P1;durP2;ratioP2;P2;SDS_P1;SDS_P2;PMS_P1;PMS_P2;Temp;Humidity;BMP_temperature;BMP_pressure;BME280_temperature;BME280_humidity;BME280_pressure;Samples;Min_cycle;Max_cycle;Signal;HPM_P1;HPM_P2
2023/05/12 00:01:49;;;;;;;;;;;15.70;99.90;;;;;;5093424;28;20380;-66
2023/05/12 00:04:16;;;;;;;;;;;15.80;99.90;;;;;;5093103;28;19912;-64
2023/05/12 00:06:43;;;;;;;;;;;16.00;99.90;;;;;;5093349;28;20361;-66
2023/05/12 00:09:09;;;;;;;;;;;16.00;99.90;;;;;;5093382;28;20287;-67
2023/05/12 00:11:39;;;;;;;;;;;16.10;99.90;;;;;;5093242;28;20478;-67
2023/05/12 00:14:06;;;;;;;;;;;16.10;99.90;;;;;;5093345;28;19909;-67
2023/05/12 00:16:33;;;;;;;;;;;16.30;99.90;;;;;;5093233;28;19908;-66
2023/05/12 00:19:00;;;;;;;;;;;16.30;99.90;;;;;;5093140;28;19948;-66
2023/05/12 00:21:26;;;;;;;;;;;16.40;99.90;;;;;;5092993;28;19916;-66
2023/05/12 00:23:53;;;;;;;;;;;16.40;99.90;;;;;;5093150;28;19908;-66
2023/05/12 00:26:20;;;;;;;;;;;16.50;99.90;;;;;;5093042;28;19915;-66
2023/05/12 00:28:47;;;;;;;;;;;16.60;99.90;;;;;;5093066;28;19908;-66
2023/05/12 00:31:14;;;;;;;;;;;16.70;99.90;;;;;;5092877;28;19908;-67
2023/05/12 00:33:41;;;;;;;;;;;16.70;99.90;;;;;;5092708;28;19962;-66
2023/05/12 00:36:08;;;;;;;;;;;16.90;99.90;;;;;;5093073;28;20348;-66
2023/05/12 00:38:36;;;;;;;;;;;16.90;99.90;;;;;;5093035;28;19931;-67
2023/05/12 00:41:03;;;;;;;;;;;17.10;99.90;;;;;;5092852;28;19916;-67
2023/05/12 00:43:30;;;;;;;;;;;17.10;99.90;;;;;;5092966;28;20012;-66
2023/05/12 00:45:57;;;;;;;;;;;17.30;99.90;;;;;;5093087;28;19908;-67
2023/05/12 00:48:24;;;;;;;;;;;17.30;99.90;;;;;;5093022;28;19909;-68
2023/05/12 00:50:51;;;;;;;;;;;17.50;99.90;;;;;;5092979;28;19908;-66
2023/05/12 00:53:17;;;;;;;;;;;17.60;99.90;;;;;;5092894;28;19998;-66
2023/05/12 00:55:44;;;;;;;;;;;17.60;99.90;;;;;;5092707;28;19916;-67
2023/05/12 00:58:11;;;;;;;;;;;17.80;99.90;;;;;;5092703;28;19909;-66
2023/05/12 01:00:38;;;;;;;;;;;17.80;99.90;;;;;;5092518;28;19961;-66
2023/05/12 01:03:04;;;;;;;;;;;18.00;99.90;;;;;;5092827;28;19908;-67
2023/05/12 01:05:57;;;;;;;;;;;18.10;99.90;;;;;;5092980;28;20253;-66
2023/05/12 01:08:24;;;;;;;;;;;18.20;99.90;;;;;;5090584;28;19915;-66
2023/05/12 01:10:50;;;;;;;;;;;18.40;99.90;;;;;;5093890;28;20368;-66
2023/05/12 01:13:17;;;;;;;;;;;18.40;99.90;;;;;;5096468;28;20011;-66
2023/05/12 01:15:47;;;;;;;;;;;18.70;99.90;;;;;;5078589;28;19908;-66
2023/05/12 01:18:19;;;;;;;;;;;18.80;99.90;;;;;;5096315;28;20360;-67
2023/05/12 01:20:47;;;;;;;;;;;18.80;99.90;;;;;;5096531;28;20273;-67
2023/05/12 01:23:15;;;;;;;;;;;19.00;99.90;;;;;;5096178;28;20374;-67
2023/05/12 01:25:42;;;;;;;;;;;19.10;99.90;;;;;;5096545;28;20276;-65
2023/05/12 01:28:09;;;;;;;;;;;19.20;99.90;;;;;;5096395;28;19908;-64
2023/05/12 01:30:40;;;;;;;;;;;19.40;99.90;;;;;;5077914;28;20321;-64
2023/05/12 01:33:07;;;;;;;;;;;19.50;99.90;;;;;;5096068;28;20288;-65
2023/05/12 01:35:34;;;;;;;;;;;19.60;99.90;;;;;;5096277;28;20345;-66
2023/05/12 01:38:01;;;;;;;;;;;19.60;99.90;;;;;;5096156;28;19908;-66
2023/05/12 01:40:27;;;;;;;;;;;19.80;99.90;;;;;;5096164;28;20365;-66
2023/05/12 01:42:54;;;;;;;;;;;20.00;99.90;;;;;;5095791;28;19943;-66
2023/05/12 01:45:21;;;;;;;;;;;20.20;99.90;;;;;;5096159;28;20002;-67
2023/05/12 01:47:47;;;;;;;;;;;20.30;99.90;;;;;;5096069;28;19915;-66
2023/05/12 01:50:14;;;;;;;;;;;20.50;99.90;;;;;;5095943;28;20048;-66
2023/05/12 01:52:42;;;;;;;;;;;20.60;99.90;;;;;;5095537;28;19908;-66
2023/05/12 01:55:08;;;;;;;;;;;20.70;99.90;;;;;;5095814;28;19997;-67
2023/05/12 01:57:35;;;;;;;;;;;20.90;99.90;;;;;;5095801;28;19915;-67
2023/05/12 02:00:02;;;;;;;;;;;21.00;99.90;;;;;;5095948;28;19912;-66
2023/05/12 02:02:30;;;;;;;;;;;21.10;99.90;;;;;;5095535;28;19915;-66
2023/05/12 02:04:57;;;;;;;;;;;21.20;99.90;;;;;;5095741;28;20006;-67
2023/05/12 02:07:23;;;;;;;;;;;21.30;99.90;;;;;;5095495;28;19962;-66
2023/05/12 02:09:50;;;;;;;;;;;21.30;99.90;;;;;;5095638;28;19986;-66
2023/05/12 02:12:17;;;;;;;;;;;21.40;99.90;;;;;;5095265;28;19908;-66
2023/05/12 02:14:44;;;;;;;;;;;21.40;99.40;;;;;;5095382;28;19915;-67
2023/05/12 02:17:10;;;;;;;;;;;21.40;99.80;;;;;;5095028;28;19911;-67
2023/05/12 02:19:37;;;;;;;;;;;21.50;99.40;;;;;;5095261;28;20249;-66
2023/05/12 02:22:04;;;;;;;;;;;21.40;99.00;;;;;;5095008;28;20365;-66
2023/05/12 02:24:30;;;;;;;;;;;21.40;99.20;;;;;;5095390;28;19908;-66
2023/05/12 02:26:57;;;;;;;;;;;21.40;98.90;;;;;;5095151;28;19912;-64
2023/05/12 02:29:24;;;;;;;;;;;21.40;98.60;;;;;;5095218;28;19908;-65
2023/05/12 02:31:51;;;;;;;;;;;21.50;98.00;;;;;;5095015;28;20280;-64
2023/05/12 02:34:18;;;;;;;;;;;21.60;97.60;;;;;;5095069;28;19908;-64
2023/05/12 02:36:44;;;;;;;;;;;21.70;97.20;;;;;;5094877;28;19943;-65
2023/05/12 02:39:12;;;;;;;;;;;21.80;96.60;;;;;;5094802;28;19916;-64
2023/05/12 02:41:39;;;;;;;;;;;21.90;96.60;;;;;;5094662;28;19926;-64
2023/05/12 02:44:05;;;;;;;;;;;22.00;96.30;;;;;;5094926;28;19908;-67
2023/05/12 02:46:32;;;;;;;;;;;22.10;96.40;;;;;;5094618;28;19908;-67
2023/05/12 02:48:59;;;;;;;;;;;22.60;95.30;;;;;;5094916;28;19912;-66
2023/05/12 02:51:25;;;;;;;;;;;22.70;95.30;;;;;;5094645;28;19915;-66
2023/05/12 02:53:52;;;;;;;;;;;22.80;94.50;;;;;;5094939;28;19905;-67
2023/05/12 02:56:19;;;;;;;;;;;22.90;95.10;;;;;;5094732;28;19915;-67
2023/05/12 02:58:46;;;;;;;;;;;23.10;95.10;;;;;;5094587;28;19953;-64
2023/05/12 03:01:13;;;;;;;;;;;23.40;94.00;;;;;;5094621;28;19916;-65
2023/05/12 03:03:40;;;;;;;;;;;24.00;94.30;;;;;;5094535;28;19912;-65
2023/05/12 03:06:06;;;;;;;;;;;24.70;92.90;;;;;;5094724;28;19908;-67
2023/05/12 03:08:33;;;;;;;;;;;25.80;91.60;;;;;;5094529;28;19909;-65
2023/05/12 03:11:00;;;;;;;;;;;26.40;89.60;;;;;;5094422;28;19959;-65
2023/05/12 03:13:26;;;;;;;;;;;26.40;86.80;;;;;;5094114;28;19912;-64
2023/05/12 03:15:54;;;;;;;;;;;26.40;88.00;;;;;;5094333;28;19908;-65
2023/05/12 03:18:21;;;;;;;;;;;26.10;85.70;;;;;;5094043;28;19912;-65
2023/05/12 03:20:47;;;;;;;;;;;26.70;85.70;;;;;;5094218;28;19923;-66
2023/05/12 03:23:15;;;;;;;;;;;28.10;81.50;;;;;;5093985;28;19908;-67
2023/05/12 03:25:42;;;;;;;;;;;29.20;78.90;;;;;;5094205;28;19908;-64
2023/05/12 03:28:09;;;;;;;;;;;29.30;75.90;;;;;;5094055;28;19930;-65
2023/05/12 03:30:36;;;;;;;;;;;30.10;72.10;;;;;;5093766;28;20368;-65
2023/05/12 03:33:03;;;;;;;;;;;31.50;72.00;;;;;;5093200;28;19915;-65
2023/05/12 03:35:30;;;;;;;;;;;33.00;64.20;;;;;;5094119;28;20026;-65
2023/05/12 03:37:56;;;;;;;;;;;33.70;63.80;;;;;;5093719;28;19908;-66
2023/05/12 03:40:23;;;;;;;;;;;35.00;61.10;;;;;;5093471;28;19916;-65
2023/05/12 03:42:50;;;;;;;;;;;35.90;58.20;;;;;;5093563;28;19924;-66
2023/05/12 03:45:17;;;;;;;;;;;36.50;57.20;;;;;;5093383;28;19908;-65
2023/05/12 03:47:43;;;;;;;;;;;37.10;56.10;;;;;;5093723;28;19908;-66
2023/05/12 03:50:10;;;;;;;;;;;37.50;55.80;;;;;;5093763;28;19927;-66
2023/05/12 03:52:39;;;;;;;;;;;37.70;53.80;;;;;;5093602;28;19947;-66
2023/05/12 03:55:06;;;;;;;;;;;37.40;53.70;;;;;;5093368;28;20217;-65
2023/05/12 03:57:35;;;;;;;;;;;37.60;53.60;;;;;;5093614;28;19909;-65
2023/05/12 04:00:02;;;;;;;;;;;37.10;53.00;;;;;;5093574;28;19916;-67
2023/05/12 04:02:29;;;;;;;;;;;36.80;53.60;;;;;;5093452;28;20383;-66
2023/05/12 04:04:56;;;;;;;;;;;36.50;53.90;;;;;;5093543;28;19980;-67
2023/05/12 04:07:22;;;;;;;;;;;35.80;54.30;;;;;;5093368;28;20108;-67
2023/05/12 04:09:49;;;;;;;;;;;36.10;54.10;;;;;;5093453;28;19909;-67
2023/05/12 04:12:16;;;;;;;;;;;36.50;53.90;;;;;;5093147;28;19908;-67
2023/05/12 04:14:42;;;;;;;;;;;36.70;53.40;;;;;;5093344;28;20029;-67
2023/05/12 04:17:10;;;;;;;;;;;36.80;52.60;;;;;;5093317;28;19909;-67
2023/05/12 04:19:36;;;;;;;;;;;36.50;51.90;;;;;;5093300;28;20380;-67
2023/05/12 04:22:03;;;;;;;;;;;35.90;54.00;;;;;;5074967;28;20379;-67
2023/05/12 04:24:30;;;;;;;;;;;34.70;56.70;;;;;;5093279;28;19958;-67
2023/05/12 04:26:57;;;;;;;;;;;33.30;58.70;;;;;;5093317;28;19915;-67
2023/05/12 04:29:23;;;;;;;;;;;31.90;61.50;;;;;;5092978;28;20372;-67
2023/05/12 04:31:50;;;;;;;;;;;29.90;64.40;;;;;;5092897;28;20289;-67
2023/05/12 04:34:17;;;;;;;;;;;28.60;67.40;;;;;;5093131;28;20304;-67
2023/05/12 04:36:43;;;;;;;;;;;27.50;69.70;;;;;;5093091;28;20262;-67
2023/05/12 04:39:10;;;;;;;;;;;26.40;72.40;;;;;;5093015;28;20350;-67
2023/05/12 04:41:36;;;;;;;;;;;25.90;73.60;;;;;;5092859;28;19924;-66
2023/05/12 04:44:03;;;;;;;;;;;25.60;74.30;;;;;;5092875;28;19915;-67
2023/05/12 04:46:30;;;;;;;;;;;25.60;76.50;;;;;;5097228;28;19909;-67
2023/05/12 04:48:57;;;;;;;;;;;25.50;77.60;;;;;;5097189;28;19909;-66
2023/05/12 04:51:23;;;;;;;;;;;25.40;79.80;;;;;;5096979;28;20371;-67
2023/05/12 04:53:50;;;;;;;;;;;25.60;81.90;;;;;;5097094;28;20348;-66
2023/05/12 04:56:16;;;;;;;;;;;25.80;82.30;;;;;;5097117;28;20372;-67
2023/05/12 04:58:43;;;;;;;;;;;26.00;81.30;;;;;;5097142;28;19915;-66
2023/05/12 05:01:11;;;;;;;;;;;25.50;83.10;;;;;;5096822;28;19920;-67
2023/05/12 05:03:38;;;;;;;;;;;25.10;85.50;;;;;;5096566;28;19908;-66
2023/05/12 05:06:05;;;;;;;;;;;24.90;87.30;;;;;;5097192;28;20305;-67
2023/05/12 05:08:31;;;;;;;;;;;24.90;86.70;;;;;;5096880;28;19909;-66
2023/05/12 05:10:58;;;;;;;;;;;24.80;87.40;;;;;;5096608;28;19908;-67
2023/05/12 05:13:24;;;;;;;;;;;24.60;89.30;;;;;;5096791;28;20078;-67
2023/05/12 05:15:52;;;;;;;;;;;24.30;90.10;;;;;;5096782;28;19909;-66
2023/05/12 05:18:18;;;;;;;;;;;24.30;90.40;;;;;;5096688;28;19914;-67
2023/05/12 05:20:45;;;;;;;;;;;24.20;90.60;;;;;;5095825;28;19916;-65
2023/05/12 05:23:12;;;;;;;;;;;24.30;91.00;;;;;;5094893;28;19968;-67
2023/05/12 05:25:38;;;;;;;;;;;24.10;91.40;;;;;;5095329;28;19981;-66
2023/05/12 05:28:05;;;;;;;;;;;23.90;92.50;;;;;;5095407;28;20432;-68
2023/05/12 05:30:32;;;;;;;;;;;23.90;92.40;;;;;;5095925;28;19908;-66
2023/05/12 05:32:59;;;;;;;;;;;23.70;92.80;;;;;;5096181;28;19915;-65
2023/05/12 05:35:25;;;;;;;;;;;23.80;92.90;;;;;;5096645;28;19998;-66
2023/05/12 05:37:53;;;;;;;;;;;23.80;93.50;;;;;;5095994;28;19916;-66
2023/05/12 05:40:20;;;;;;;;;;;24.00;93.40;;;;;;5095942;28;20412;-65
2023/05/12 05:42:47;;;;;;;;;;;24.00;93.20;;;;;;5092715;28;19970;-66
2023/05/12 05:45:13;;;;;;;;;;;24.40;92.60;;;;;;5094577;28;19915;-65
2023/05/12 05:47:41;;;;;;;;;;;24.70;92.30;;;;;;5095612;28;20300;-65
2023/05/12 05:50:07;;;;;;;;;;;24.90;92.20;;;;;;5094541;28;19935;-67
2023/05/12 05:52:34;;;;;;;;;;;24.80;92.10;;;;;;5093467;28;19920;-67
2023/05/12 05:55:01;;;;;;;;;;;24.70;92.60;;;;;;5093870;28;19912;-68
2023/05/12 05:57:27;;;;;;;;;;;24.50;92.90;;;;;;5093284;28;20371;-66
2023/05/12 05:59:54;;;;;;;;;;;24.50;92.90;;;;;;5093656;28;20225;-66
2023/05/12 06:02:23;;;;;;;;;;;24.60;93.00;;;;;;5093574;28;19912;-67
2023/05/12 06:04:51;;;;;;;;;;;24.70;93.20;;;;;;5093580;28;19943;-68
2023/05/12 06:07:18;;;;;;;;;;;24.90;93.00;;;;;;5093718;28;20349;-66
2023/05/12 06:09:44;;;;;;;;;;;25.20;92.60;;;;;;5075844;28;19933;-65
2023/05/12 06:12:11;;;;;;;;;;;25.70;91.70;;;;;;5093785;28;20357;-66
2023/05/12 06:14:37;;;;;;;;;;;26.30;90.20;;;;;;5091141;28;19912;-68
2023/05/12 06:17:04;;;;;;;;;;;27.00;89.10;;;;;;5093531;28;19931;-66
2023/05/12 06:19:31;;;;;;;;;;;27.80;87.30;;;;;;5092796;28;19928;-67
2023/05/12 06:21:57;;;;;;;;;;;28.30;85.00;;;;;;5092723;28;19912;-66
2023/05/12 06:24:24;;;;;;;;;;;27.80;84.20;;;;;;5094608;28;19943;-67
2023/05/12 06:26:51;;;;;;;;;;;26.80;86.40;;;;;;5085670;28;19965;-68
2023/05/12 06:29:20;;;;;;;;;;;25.70;89.50;;;;;;5092911;28;19917;-68
2023/05/12 06:31:46;;;;;;;;;;;24.60;91.50;;;;;;5091361;28;19916;-67
2023/05/12 06:34:13;;;;;;;;;;;23.70;93.00;;;;;;5091883;28;19961;-67
2023/05/12 06:36:40;;;;;;;;;;;23.10;94.30;;;;;;5102530;28;19978;-66
2023/05/12 06:39:06;;;;;;;;;;;22.50;95.40;;;;;;5075381;28;19915;-70
2023/05/12 06:41:33;;;;;;;;;;;22.10;96.30;;;;;;5092414;28;20036;-67
2023/05/12 06:44:01;;;;;;;;;;;21.70;97.50;;;;;;5084507;28;20101;-67
2023/05/12 06:46:28;;;;;;;;;;;21.40;98.40;;;;;;5082564;28;19962;-67
2023/05/12 06:48:54;;;;;;;;;;;21.20;99.00;;;;;;5092078;28;19950;-66
2023/05/12 06:51:21;;;;;;;;;;;21.00;99.90;;;;;;5092917;28;19998;-67
2023/05/12 06:53:48;;;;;;;;;;;20.80;99.90;;;;;;5091532;28;19908;-67
2023/05/12 06:56:15;;;;;;;;;;;20.60;99.90;;;;;;5091962;28;19912;-66
2023/05/12 06:58:43;;;;;;;;;;;20.40;99.90;;;;;;5090344;28;19916;-65
2023/05/12 07:01:09;;;;;;;;;;;20.40;99.90;;;;;;5092436;28;19916;-66
2023/05/12 07:03:36;;;;;;;;;;;20.20;99.90;;;;;;5091882;28;19916;-68
2023/05/12 07:06:03;;;;;;;;;;;20.10;99.90;;;;;;5092585;28;19912;-70
2023/05/12 07:08:29;;;;;;;;;;;20.00;99.90;;;;;;5087721;28;19912;-69
2023/05/12 07:11:07;;;;;;;;;;;19.90;99.90;;;;;;5091572;28;19916;-73
2023/05/12 07:13:34;;;;;;;;;;;19.80;99.90;;;;;;5088708;28;19908;-74
2023/05/12 07:16:01;;;;;;;;;;;19.70;99.90;;;;;;5092156;28;20368;-68
2023/05/12 07:18:28;;;;;;;;;;;19.60;99.90;;;;;;5090756;28;20369;-77
2023/05/12 07:20:54;;;;;;;;;;;19.40;99.90;;;;;;5089695;28;20383;-76
2023/05/12 07:23:21;;;;;;;;;;;19.30;99.90;;;;;;5091036;28;19912;-69
2023/05/12 07:25:48;;;;;;;;;;;19.20;99.90;;;;;;5091271;28;19912;-75
2023/05/12 07:28:14;;;;;;;;;;;19.10;99.90;;;;;;5089946;28;19954;-78
2023/05/12 07:30:41;;;;;;;;;;;19.00;99.90;;;;;;5091046;28;19908;-72
2023/05/12 07:33:08;;;;;;;;;;;18.90;99.90;;;;;;5091365;28;20329;-67
2023/05/12 07:35:35;;;;;;;;;;;18.90;99.90;;;;;;5089457;28;19908;-77
2023/05/12 07:38:02;;;;;;;;;;;18.80;99.90;;;;;;5091618;28;19908;-77
2023/05/12 07:40:29;;;;;;;;;;;18.70;99.90;;;;;;5090961;28;19934;-69
2023/05/12 07:42:56;;;;;;;;;;;18.70;99.90;;;;;;5091006;28;19950;-76
2023/05/12 07:45:23;;;;;;;;;;;18.70;99.90;;;;;;5090941;28;19914;-72
2023/05/12 07:47:50;;;;;;;;;;;18.60;99.90;;;;;;5091338;28;19916;-78
2023/05/12 07:50:17;;;;;;;;;;;18.60;99.90;;;;;;5091035;28;19959;-82
2023/05/12 07:52:50;;;;;;;;;;;18.50;99.90;;;;;;5089626;28;19908;-72
2023/05/12 07:55:18;;;;;;;;;;;18.50;99.90;;;;;;5087543;28;19908;-66
2023/05/12 07:57:44;;;;;;;;;;;18.50;99.90;;;;;;5091663;28;19908;-78
2023/05/12 08:00:12;;;;;;;;;;;18.50;99.90;;;;;;5091247;28;19916;-74
2023/05/12 08:02:39;;;;;;;;;;;18.40;99.90;;;;;;5090707;28;19915;-79
2023/05/12 08:05:06;;;;;;;;;;;18.40;99.90;;;;;;5091274;28;19915;-72
2023/05/12 08:07:33;;;;;;;;;;;18.40;99.90;;;;;;5091256;28;19912;-75
2023/05/12 08:09:59;;;;;;;;;;;18.40;99.90;;;;;;5091253;28;19953;-78
2023/05/12 08:12:26;;;;;;;;;;;18.30;99.90;;;;;;5090839;28;20270;-80
2023/05/12 08:14:52;;;;;;;;;;;18.30;99.90;;;;;;5090715;28;19919;-66
2023/05/12 08:17:19;;;;;;;;;;;18.20;99.90;;;;;;5091283;28;20376;-76
2023/05/12 08:19:46;;;;;;;;;;;18.20;99.90;;;;;;5090555;28;19944;-78
2023/05/12 08:22:12;;;;;;;;;;;18.20;99.90;;;;;;5090981;28;19912;-79
2023/05/12 08:24:39;;;;;;;;;;;18.10;99.90;;;;;;5089612;28;20006;-69
2023/05/12 08:27:06;;;;;;;;;;;18.10;99.90;;;;;;5091234;28;19908;-78
2023/05/12 08:29:32;;;;;;;;;;;18.10;99.90;;;;;;5090760;28;19966;-77
2023/05/12 08:31:59;;;;;;;;;;;18.10;99.90;;;;;;5092025;28;20348;-66
2023/05/12 08:34:26;;;;;;;;;;;18.00;99.90;;;;;;5091401;28;20360;-69
2023/05/12 08:36:53;;;;;;;;;;;18.00;99.90;;;;;;5092033;28;19908;-74
2023/05/12 08:39:20;;;;;;;;;;;18.00;99.90;;;;;;5091060;28;19916;-76
2023/05/12 08:42:08;;;;;;;;;;;17.90;99.90;;;;;;5091350;28;20384;-72
2023/05/12 08:44:39;;;;;;;;;;;17.90;99.90;;;;;;5091399;28;20260;-75
2023/05/12 08:47:06;;;;;;;;;;;17.90;99.90;;;;;;5092135;28;19912;-70
2023/05/12 08:49:34;;;;;;;;;;;17.80;99.90;;;;;;5091090;28;19918;-73
2023/05/12 08:52:01;;;;;;;;;;;17.80;99.90;;;;;;5091706;28;19959;-66
2023/05/12 08:54:29;;;;;;;;;;;17.70;99.90;;;;;;5091545;28;20526;-68
2023/05/12 08:56:56;;;;;;;;;;;17.70;99.90;;;;;;5092001;28;19922;-76
2023/05/12 08:59:23;;;;;;;;;;;17.60;99.90;;;;;;5091191;28;20342;-69
2023/05/12 09:01:50;;;;;;;;;;;17.60;99.90;;;;;;5091502;28;19915;-75
2023/05/12 09:04:17;;;;;;;;;;;17.60;99.90;;;;;;5091545;28;20309;-77
2023/05/12 09:06:44;;;;;;;;;;;17.50;99.90;;;;;;5090881;28;19939;-78
2023/05/12 09:09:15;;;;;;;;;;;17.50;99.90;;;;;;5091474;28;20302;-71
2023/05/12 09:11:42;;;;;;;;;;;17.50;99.90;;;;;;5091720;28;20277;-77
2023/05/12 09:14:11;;;;;;;;;;;17.50;99.90;;;;;;5092070;28;20478;-76
2023/05/12 09:16:43;;;;;;;;;;;17.40;99.90;;;;;;5091017;28;19912;-73
2023/05/12 09:19:09;;;;;;;;;;;17.40;99.90;;;;;;5091794;28;19942;-72
2023/05/12 09:21:36;;;;;;;;;;;17.40;99.90;;;;;;5091431;28;19931;-73
2023/05/12 09:24:07;;;;;;;;;;;17.30;99.90;;;;;;5090663;28;19908;-68
2023/05/12 09:26:47;;;;;;;;;;;17.30;99.90;;;;;;5090943;28;19919;-70
2023/05/12 09:29:15;;;;;;;;;;;17.20;99.90;;;;;;5091603;28;20015;-65
2023/05/12 09:31:50;;;;;;;;;;;17.10;99.90;;;;;;5092500;28;20283;-67
2023/05/12 09:34:17;;;;;;;;;;;17.10;99.90;;;;;;5094634;28;19912;-65
2023/05/12 09:36:47;;;;;;;;;;;17.10;99.90;;;;;;5093979;28;19920;-69
2023/05/12 09:39:14;;;;;;;;;;;17.00;99.90;;;;;;5091492;28;20527;-69
2023/05/12 09:41:41;;;;;;;;;;;17.00;99.90;;;;;;5093285;28;19932;-69
2023/05/12 09:44:09;;;;;;;;;;;17.00;99.90;;;;;;5092289;28;20002;-72
2023/05/12 09:46:38;;;;;;;;;;;17.00;99.90;;;;;;5093857;28;19908;-73
2023/05/12 09:49:05;;;;;;;;;;;17.00;99.90;;;;;;5093610;28;19912;-75
2023/05/12 09:51:32;;;;;;;;;;;17.00;99.90;;;;;;5093392;28;19913;-65
2023/05/12 09:53:59;;;;;;;;;;;16.90;99.90;;;;;;5093483;28;20254;-66
2023/05/12 09:56:30;;;;;;;;;;;16.90;99.90;;;;;;5093630;28;19963;-76
2023/05/12 09:58:57;;;;;;;;;;;16.80;99.90;;;;;;5093812;28;19912;-73
2023/05/12 10:01:24;;;;;;;;;;;16.80;99.90;;;;;;5093513;28;19924;-68
2023/05/12 10:03:53;;;;;;;;;;;16.70;99.90;;;;;;5093515;28;19938;-72
2023/05/12 10:06:22;;;;;;;;;;;16.70;99.90;;;;;;5093195;28;19919;-73
2023/05/12 10:08:52;;;;;;;;;;;16.70;99.90;;;;;;5093861;28;20069;-78
2023/05/12 10:11:19;;;;;;;;;;;16.70;99.90;;;;;;5093744;28;19919;-76
2023/05/12 10:13:45;;;;;;;;;;;16.60;99.90;;;;;;5094011;28;20065;-78
2023/05/12 10:16:13;;;;;;;;;;;16.60;99.90;;;;;;5092167;28;19958;-75
2023/05/12 10:18:43;;;;;;;;;;;16.50;99.90;;;;;;5092613;28;19912;-72
2023/05/12 10:21:10;;;;;;;;;;;16.50;99.90;;;;;;5091049;28;19917;-67
2023/05/12 10:23:38;;;;;;;;;;;16.50;99.90;;;;;;5092951;28;19914;-78
2023/05/12 10:26:06;;;;;;;;;;;16.50;99.90;;;;;;5093493;28;19918;-70
2023/05/12 10:28:32;;;;;;;;;;;16.40;99.90;;;;;;5092873;28;19916;-73
2023/05/12 10:30:59;;;;;;;;;;;16.40;99.90;;;;;;5090615;28;19915;-79
2023/05/12 10:33:26;;;;;;;;;;;16.30;99.90;;;;;;5091797;28;19912;-77
2023/05/12 10:35:53;;;;;;;;;;;16.30;99.90;;;;;;5092406;28;19924;-77
2023/05/12 10:38:19;;;;;;;;;;;16.30;99.90;;;;;;5092864;28;19924;-79
2023/05/12 10:40:53;;;;;;;;;;;16.30;99.90;;;;;;5092954;28;19959;-73
2023/05/12 10:43:23;;;;;;;;;;;16.30;99.90;;;;;;5092538;28;19920;-69
2023/05/12 10:46:08;;;;;;;;;;;16.30;99.90;;;;;;5089867;28;19912;-73
2023/05/12 10:48:37;;;;;;;;;;;16.30;99.90;;;;;;5090681;28;19961;-73
2023/05/12 10:51:07;;;;;;;;;;;16.30;99.90;;;;;;5092181;28;19920;-73
2023/05/12 10:53:34;;;;;;;;;;;16.30;99.90;;;;;;5092420;28;20010;-79
2023/05/12 10:56:04;;;;;;;;;;;16.20;99.90;;;;;;5092238;28;19927;-71
2023/05/12 10:58:32;;;;;;;;;;;16.20;99.90;;;;;;5090421;28;19908;-72
2023/05/12 11:01:06;;;;;;;;;;;16.20;99.90;;;;;;5092176;28;19920;-81
2023/05/12 11:03:33;;;;;;;;;;;16.20;99.90;;;;;;5090562;28;19920;-70
2023/05/12 11:06:00;;;;;;;;;;;16.10;99.90;;;;;;5092039;28;19919;-80
2023/05/12 11:08:27;;;;;;;;;;;16.10;99.90;;;;;;5092341;28;19916;-73
2023/05/12 11:10:54;;;;;;;;;;;16.10;99.90;;;;;;5092464;28;19956;-78
2023/05/12 11:13:21;;;;;;;;;;;16.10;99.90;;;;;;5092400;28;19924;-78
2023/05/12 11:15:49;;;;;;;;;;;16.10;99.90;;;;;;5092504;28;19916;-72
2023/05/12 11:18:22;;;;;;;;;;;16.10;99.90;;;;;;5092525;28;19923;-81
2023/05/12 11:20:49;;;;;;;;;;;16.10;99.90;;;;;;5093494;28;19916;-81
2023/05/12 11:23:28;;;;;;;;;;;16.10;99.90;;;;;;5093078;28;19916;-81
2023/05/12 11:25:55;;;;;;;;;;;16.10;99.90;;;;;;5093358;28;19913;-82
2023/05/12 11:28:22;;;;;;;;;;;16.00;99.90;;;;;;5092179;28;19920;-79
2023/05/12 11:30:53;;;;;;;;;;;15.90;99.90;;;;;;5092397;28;19912;-80
2023/05/12 11:33:23;;;;;;;;;;;15.90;99.90;;;;;;5092851;28;19912;-78
2023/05/12 11:35:49;;;;;;;;;;;15.90;99.90;;;;;;5093321;28;19914;-76
2023/05/12 11:38:17;;;;;;;;;;;15.90;99.90;;;;;;5092847;28;19908;-82
2023/05/12 11:40:44;;;;;;;;;;;15.90;99.90;;;;;;5093092;28;20404;-82
2023/05/12 11:43:11;;;;;;;;;;;15.80;99.90;;;;;;5092570;28;19920;-76
2023/05/12 11:45:37;;;;;;;;;;;15.80;99.90;;;;;;5092740;28;19908;-84
2023/05/12 11:48:11;;;;;;;;;;;15.80;99.90;;;;;;5092987;28;20315;-77
2023/05/12 11:50:38;;;;;;;;;;;15.80;99.90;;;;;;5091800;28;19919;-78
2023/05/12 11:53:08;;;;;;;;;;;15.70;99.90;;;;;;5092633;28;19965;-76
2023/05/12 11:55:35;;;;;;;;;;;15.80;99.90;;;;;;5092760;28;20374;-77
2023/05/12 11:58:02;;;;;;;;;;;15.90;99.90;;;;;;5092656;28;19908;-72
2023/05/12 12:00:33;;;;;;;;;;;16.00;99.90;;;;;;5092311;28;20289;-69
2023/05/12 12:03:10;;;;;;;;;;;16.00;99.90;;;;;;5092910;28;20343;-80
2023/05/12 12:05:37;;;;;;;;;;;16.10;99.90;;;;;;5092744;28;19909;-82
2023/05/12 12:08:05;;;;;;;;;;;16.10;99.90;;;;;;5092432;28;19919;-82
2023/05/12 12:10:31;;;;;;;;;;;16.10;99.90;;;;;;5092199;28;20269;-75
2023/05/12 12:13:00;;;;;;;;;;;16.10;99.90;;;;;;5092727;28;20472;-78
2023/05/12 12:15:27;;;;;;;;;;;16.20;99.90;;;;;;5092902;28;19912;-82
2023/05/12 12:17:53;;;;;;;;;;;16.10;99.90;;;;;;5089535;28;19909;-77
2023/05/12 12:20:20;;;;;;;;;;;16.10;99.90;;;;;;5091972;28;19935;-76
2023/05/12 12:22:47;;;;;;;;;;;16.10;99.90;;;;;;5092369;28;20046;-85
2023/05/12 12:25:14;;;;;;;;;;;16.10;99.90;;;;;;5092824;28;20380;-77
2023/05/12 12:27:40;;;;;;;;;;;16.10;99.90;;;;;;5092081;28;19935;-72
2023/05/12 12:30:08;;;;;;;;;;;16.10;99.90;;;;;;5092329;28;19912;-75
2023/05/12 12:32:35;;;;;;;;;;;16.00;99.90;;;;;;5092407;28;19908;-79
2023/05/12 12:35:03;;;;;;;;;;;16.10;99.90;;;;;;5092538;28;19994;-79
2023/05/12 12:37:30;;;;;;;;;;;16.00;99.90;;;;;;5092248;28;19950;-76
2023/05/12 12:39:57;;;;;;;;;;;15.90;99.90;;;;;;5092026;28;20337;-81
2023/05/12 12:42:24;;;;;;;;;;;15.90;99.90;;;;;;5074579;28;20380;-74
2023/05/12 12:44:50;;;;;;;;;;;15.90;99.90;;;;;;5092851;28;19962;-77
2023/05/12 12:47:17;;;;;;;;;;;15.90;99.90;;;;;;5091376;28;19908;-70
2023/05/12 12:49:44;;;;;;;;;;;15.80;99.90;;;;;;5091437;28;19919;-70
2023/05/12 12:52:11;;;;;;;;;;;15.80;99.90;;;;;;5072114;28;20266;-68
2023/05/12 12:54:38;;;;;;;;;;;15.80;99.90;;;;;;5080181;28;20361;-76
2023/05/12 12:57:04;;;;;;;;;;;15.80;99.90;;;;;;5092298;28;19957;-67
2023/05/12 12:59:31;;;;;;;;;;;15.70;99.90;;;;;;5092368;28;19984;-78
2023/05/12 13:01:59;;;;;;;;;;;15.70;99.90;;;;;;5092774;28;20389;-74
2023/05/12 13:04:26;;;;;;;;;;;15.70;99.90;;;;;;5092714;28;19912;-65
2023/05/12 13:06:52;;;;;;;;;;;15.70;99.90;;;;;;5094114;28;19962;-70
2023/05/12 13:09:19;;;;;;;;;;;15.70;99.90;;;;;;5096410;28;19912;-77
2023/05/12 13:11:46;;;;;;;;;;;15.70;99.90;;;;;;5085532;28;19908;-69
2023/05/12 13:14:12;;;;;;;;;;;15.80;99.90;;;;;;5075542;28;19916;-65
2023/05/12 13:16:39;;;;;;;;;;;15.80;99.90;;;;;;5075611;28;19916;-76
2023/05/12 13:19:06;;;;;;;;;;;15.90;99.90;;;;;;5088200;28;19912;-69
2023/05/12 13:21:33;;;;;;;;;;;15.90;99.90;;;;;;5094922;28;19924;-72
2023/05/12 13:24:00;;;;;;;;;;;15.90;99.90;;;;;;5094490;28;20799;-77
2023/05/12 13:26:27;;;;;;;;;;;15.90;99.90;;;;;;5096303;28;19938;-80
2023/05/12 13:28:53;;;;;;;;;;;15.90;99.90;;;;;;5077157;28;20323;-73
2023/05/12 13:31:20;;;;;;;;;;;16.00;99.90;;;;;;5095567;28;19912;-70
2023/05/12 13:33:47;;;;;;;;;;;16.00;99.90;;;;;;5091477;28;19912;-79
2023/05/12 13:36:13;;;;;;;;;;;16.00;99.90;;;;;;5096271;28;20353;-77
2023/05/12 13:38:40;;;;;;;;;;;16.00;99.90;;;;;;5095700;28;20007;-70
2023/05/12 13:41:06;;;;;;;;;;;16.00;99.90;;;;;;5095105;28;20330;-78
2023/05/12 13:43:33;;;;;;;;;;;16.00;99.90;;;;;;5095741;28;19965;-81
2023/05/12 13:46:00;;;;;;;;;;;16.10;99.90;;;;;;5096161;28;20003;-79
2023/05/12 13:48:26;;;;;;;;;;;16.00;99.90;;;;;;5095598;28;20038;-68
2023/05/12 13:50:53;;;;;;;;;;;16.00;99.90;;;;;;5095019;28;19912;-75
2023/05/12 13:53:20;;;;;;;;;;;16.00;99.90;;;;;;5095527;28;19908;-74
2023/05/12 13:55:47;;;;;;;;;;;16.10;99.90;;;;;;5095166;28;19908;-70
2023/05/12 13:58:13;;;;;;;;;;;16.10;99.90;;;;;;5095060;28;19912;-66
2023/05/12 14:00:40;;;;;;;;;;;16.10;99.90;;;;;;5095374;28;20388;-71
2023/05/12 14:03:07;;;;;;;;;;;16.00;99.90;;;;;;5095427;28;20369;-77
2023/05/12 14:05:33;;;;;;;;;;;16.10;99.90;;;;;;5095528;28;19908;-79
2023/05/12 14:08:00;;;;;;;;;;;16.00;99.90;;;;;;5095806;28;19934;-76
2023/05/12 14:10:27;;;;;;;;;;;16.00;99.90;;;;;;5095121;28;19969;-80
2023/05/12 14:12:53;;;;;;;;;;;16.00;99.90;;;;;;5095011;28;20171;-78
2023/05/12 14:15:20;;;;;;;;;;;15.90;99.90;;;;;;5095548;28;19908;-80
2023/05/12 14:17:46;;;;;;;;;;;15.90;99.90;;;;;;5076974;28;19909;-75